Overview Statistics Trail Chart Weather Telemetry Raw packets
 

This is the latest recevied weather packets stored in our database for station/object OK1FET-5. If no packets are shown the sender has not sent any weather packets the latest 10 day(s).

<< 25 26 27 28 29 30 31 >>
Time Temp. Humidity Pressure Rain* Wind** Luminosity Snow
1788182154 28.33° C 41% 1016.6 hPa - - - -
1788181558 28.33° C 46% 1016.7 hPa - - - -
1788180963 27.78° C 45% 1016.7 hPa - - - -
1788180367 27.78° C 45% 1016.8 hPa - - - -
1788179771 27.22° C 47% 1016.7 hPa - - - -
1788179175 26.67° C 49% 1016.7 hPa - - - -
1788178580 26.11° C 54% 1016.6 hPa - - - -
1788177984 26.67° C 53% 1016.7 hPa - - - -
1788177388 26.11° C 53% 1016.6 hPa - - - -
1788176792 26.11° C 56% 1016.7 hPa - - - -
1788176196 26.11° C 58% 1016.7 hPa - - - -
1788175601 25.56° C 64% 1016.7 hPa - - - -
1788175005 23.89° C 71% 1016.9 hPa - - - -
1788174409 23.33° C 71% 1016.9 hPa - - - -
1788172622 20° C 83% 1017.1 hPa - - - -
1788172026 20.56° C 79% 1017.1 hPa - - - -
1788171430 21.11° C 79% 1017.1 hPa - - - -
1788170834 20.56° C 82% 1017.1 hPa - - - -
1788170239 19.44° C 86% 1017.1 hPa - - - -
1788169643 18.33° C 89% 1017.3 hPa - - - -
1788169047 18.33° C 91% 1017.2 hPa - - - -
1788168452 17.78° C 90% 1017.2 hPa - - - -
1788167856 17.22° C 88% 1017.1 hPa - - - -
1788167260 17.22° C 89% 1017.1 hPa - - - -
1788166664 17.22° C 89% 1017 hPa - - - -

* Rain since midnight (hover to see other rain measurements)
** Current wind speed in m/s (hover to see current wind gust speed)